createdAt,value
2018-02-23T00:00:57.925Z,1017.38
2018-02-23T00:02:07.132Z,1017.37
2018-02-23T00:03:16.338Z,1017.39
2018-02-23T00:04:25.089Z,1017.38
2018-02-23T00:05:34.043Z,1017.41
2018-02-23T00:06:42.989Z,1017.42
2018-02-23T00:07:52.463Z,1017.44
2018-02-23T00:09:01.419Z,1017.46
2018-02-23T00:10:10.447Z,1017.4
2018-02-23T00:11:19.667Z,1017.42
2018-02-23T00:12:28.628Z,1017.42
2018-02-23T00:13:37.324Z,1017.38
2018-02-23T00:14:46.547Z,1017.45
2018-02-23T00:15:55.517Z,1017.39
2018-02-23T00:17:04.481Z,1017.42
2018-02-23T00:18:13.500Z,1017.44
2018-02-23T00:19:22.981Z,1017.41
2018-02-23T00:20:31.917Z,1017.42
2018-02-23T00:21:40.888Z,1017.43
2018-02-23T00:22:49.645Z,1017.42
2018-02-23T00:23:59.420Z,1017.38
2018-02-23T00:25:08.093Z,1017.4
2018-02-23T00:26:17.112Z,1017.36
2018-02-23T00:27:26.498Z,1017.39
2018-02-23T00:28:35.173Z,1017.42
2018-02-23T00:29:44.652Z,1017.4
2018-02-23T00:30:53.856Z,1017.4
2018-02-23T00:32:02.963Z,1017.36
2018-02-23T00:33:11.952Z,1017.36
2018-02-23T00:34:20.750Z,1017.35
2018-02-23T00:35:29.965Z,1017.34
2018-02-23T00:36:39.444Z,1017.38
2018-02-23T00:37:48.460Z,1017.36
2018-02-23T00:38:57.666Z,1017.33
2018-02-23T00:40:07.160Z,1017.39
2018-02-23T00:41:16.115Z,1017.36
2018-02-23T00:42:25.327Z,1017.38
2018-02-23T00:43:34.270Z,1017.37
2018-02-23T00:44:43.478Z,1017.36
2018-02-23T00:45:52.695Z,1017.37
2018-02-23T00:47:02.157Z,1017.36
2018-02-23T00:48:11.102Z,1017.37
2018-02-23T00:49:20.049Z,1017.32
2018-02-23T00:50:29.510Z,1017.33
2018-02-23T00:51:38.213Z,1017.26
2018-02-23T00:52:47.420Z,1017.27
2018-02-23T00:53:56.647Z,1017.25
2018-02-23T00:55:05.603Z,1017.29
2018-02-23T00:56:14.550Z,1017.28
2018-02-23T00:57:23.510Z,1017.28
2018-02-23T00:58:32.440Z,1017.27
2018-02-23T00:59:41.394Z,1017.27
2018-02-23T01:00:50.356Z,1017.28
2018-02-23T01:01:59.302Z,1017.31
2018-02-23T01:03:08.262Z,1017.29
2018-02-23T01:04:17.216Z,1017.23
2018-02-23T01:05:26.486Z,1017.25
2018-02-23T01:06:36.007Z,1017.25
2018-02-23T01:07:45.211Z,1017.29
2018-02-23T01:08:54.699Z,1017.28
2018-02-23T01:10:03.922Z,1017.24
2018-02-23T01:11:13.125Z,1017.29
2018-02-23T01:12:22.092Z,1017.29
2018-02-23T01:13:31.379Z,1017.27
2018-02-23T01:14:40.328Z,1017.27
2018-02-23T01:15:49.543Z,1017.28
2018-02-23T01:16:58.528Z,1017.25
2018-02-23T01:18:07.469Z,1017.25
2018-02-23T01:19:16.152Z,1017.23
2018-02-23T01:20:24.851Z,1017.21
2018-02-23T01:21:34.172Z,1017.2
2018-02-23T01:22:43.617Z,1017.19
2018-02-23T01:23:52.827Z,1017.22
2018-02-23T01:25:02.052Z,1017.22
2018-02-23T01:26:11.275Z,1017.23
2018-02-23T01:27:20.769Z,1017.24
2018-02-23T01:28:29.979Z,1017.24
2018-02-23T01:29:38.680Z,1017.25
2018-02-23T01:30:47.620Z,1017.29
2018-02-23T01:31:56.839Z,1017.21
2018-02-23T01:33:05.799Z,1017.22
2018-02-23T01:34:15.263Z,1017.19
2018-02-23T01:35:24.223Z,1017.17
2018-02-23T01:36:33.447Z,1017.2
2018-02-23T01:37:42.209Z,1017.21
2018-02-23T01:38:50.900Z,1017.27
2018-02-23T01:40:00.376Z,1017.26
2018-02-23T01:41:09.313Z,1017.26
2018-02-23T01:42:18.008Z,1017.24
2018-02-23T01:43:27.213Z,1017.21
2018-02-23T01:44:35.908Z,1017.21
2018-02-23T01:45:44.856Z,1017.2
2018-02-23T01:46:54.319Z,1017.17
2018-02-23T01:48:03.274Z,1017.2
2018-02-23T01:49:12.770Z,1017.17
2018-02-23T01:50:21.459Z,1017.18
2018-02-23T01:51:30.419Z,1017.18
2018-02-23T01:52:39.886Z,1017.13
2018-02-23T01:53:49.121Z,1017.15
2018-02-23T01:54:58.349Z,1017.12
2018-02-23T01:56:07.552Z,1017.12
2018-02-23T01:57:17.051Z,1017.1
2018-02-23T01:58:26.525Z,1017.07
2018-02-23T01:59:36.269Z,1017.07
2018-02-23T02:00:45.737Z,1017.05
2018-02-23T02:01:55.205Z,1017.02
2018-02-23T02:03:04.168Z,1017.01
2018-02-23T02:04:12.869Z,1016.98
2018-02-23T02:05:21.861Z,1016.98
2018-02-23T02:06:31.087Z,1016.97
2018-02-23T02:07:40.621Z,1016.96
2018-02-23T02:08:50.101Z,1016.88
2018-02-23T02:09:59.315Z,1016.89
2018-02-23T02:11:08.538Z,1016.83
2018-02-23T02:12:17.208Z,1016.84
2018-02-23T02:13:26.948Z,1016.86
2018-02-23T02:14:35.901Z,1016.84
2018-02-23T02:15:44.847Z,1016.81
2018-02-23T02:16:53.556Z,1016.76
2018-02-23T02:18:02.520Z,1016.78
2018-02-23T02:19:11.707Z,1016.8
2018-02-23T02:20:21.198Z,1016.77
2018-02-23T02:21:29.913Z,1016.78
2018-02-23T02:22:38.884Z,1016.78
2018-02-23T02:23:47.629Z,1016.8
2018-02-23T02:24:57.149Z,1016.77
2018-02-23T02:26:06.371Z,1016.81
2018-02-23T02:27:15.571Z,1016.81
2018-02-23T02:28:24.761Z,1016.79
2018-02-23T02:29:34.014Z,1016.82
2018-02-23T02:30:43.209Z,1016.84
2018-02-23T02:31:52.705Z,1016.84
2018-02-23T02:33:02.203Z,1016.86
2018-02-23T02:34:11.849Z,1016.87
2018-02-23T02:35:21.077Z,1016.86
2018-02-23T02:36:30.020Z,1016.89
2018-02-23T02:37:39.007Z,1016.88
2018-02-23T02:38:48.532Z,1016.84
2018-02-23T02:39:57.743Z,1016.83
2018-02-23T02:41:06.950Z,1016.8
2018-02-23T02:42:16.716Z,1016.83
2018-02-23T02:43:25.665Z,1016.82
2018-02-23T02:44:34.615Z,1016.81
2018-02-23T02:45:43.834Z,1016.8
2018-02-23T02:46:53.305Z,1016.8
2018-02-23T02:48:02.806Z,1016.81
2018-02-23T02:49:11.496Z,1016.81
2018-02-23T02:50:20.701Z,1016.81
2018-02-23T02:51:29.924Z,1016.8
2018-02-23T02:52:39.697Z,1016.76
2018-02-23T02:53:49.223Z,1016.8
2018-02-23T02:54:58.711Z,1016.8
2018-02-23T02:56:07.931Z,1016.75
2018-02-23T02:57:17.154Z,1016.72
2018-02-23T02:58:26.674Z,1016.69
2018-02-23T02:59:35.635Z,1016.72
2018-02-23T03:00:44.585Z,1016.73
2018-02-23T03:01:54.091Z,1016.74
2018-02-23T03:03:03.323Z,1016.73
2018-02-23T03:04:13.066Z,1016.73
2018-02-23T03:05:22.001Z,1016.71
2018-02-23T03:06:30.953Z,1016.69
2018-02-23T03:07:39.895Z,1016.72
2018-02-23T03:08:48.572Z,1016.71
2018-02-23T03:09:57.810Z,1016.67
2018-02-23T03:11:07.017Z,1016.61
2018-02-23T03:12:16.275Z,1016.63
2018-02-23T03:13:25.498Z,1016.63
2018-02-23T03:14:34.459Z,1016.69
2018-02-23T03:15:43.161Z,1016.66
2018-02-23T03:16:52.119Z,1016.66
2018-02-23T03:18:01.330Z,1016.67
2018-02-23T03:19:10.601Z,1016.68
2018-02-23T03:20:19.833Z,1016.66
2018-02-23T03:21:28.781Z,1016.67
2018-02-23T03:22:37.710Z,1016.66
2018-02-23T03:23:46.672Z,1016.73
2018-02-23T03:24:55.956Z,1016.7
2018-02-23T03:26:04.647Z,1016.73
2018-02-23T03:27:13.331Z,1016.76
2018-02-23T03:28:22.040Z,1016.78
2018-02-23T03:29:30.831Z,1016.78
2018-02-23T03:30:39.525Z,1016.78
2018-02-23T03:31:48.763Z,1016.83
2018-02-23T03:32:57.454Z,1016.84
2018-02-23T03:34:06.164Z,1016.83
2018-02-23T03:35:15.133Z,1016.84
2018-02-23T03:36:24.347Z,1016.79
2018-02-23T03:37:33.034Z,1016.79
2018-02-23T03:38:41.728Z,1016.82
2018-02-23T03:39:50.673Z,1016.82
2018-02-23T03:40:59.690Z,1016.87
2018-02-23T03:42:08.724Z,1016.87
2018-02-23T03:43:17.957Z,1016.88
2018-02-23T03:44:27.172Z,1016.84
2018-02-23T03:45:36.662Z,1016.81
2018-02-23T03:46:45.615Z,1016.83
2018-02-23T03:47:55.126Z,1016.81
2018-02-23T03:49:04.086Z,1016.78
2018-02-23T03:50:13.043Z,1016.78
2018-02-23T03:51:21.971Z,1016.74
2018-02-23T03:52:30.730Z,1016.76
2018-02-23T03:53:39.939Z,1016.73
2018-02-23T03:54:49.609Z,1016.76
2018-02-23T03:55:59.337Z,1016.78
2018-02-23T03:57:08.586Z,1016.8
2018-02-23T03:58:17.809Z,1016.81
2018-02-23T03:59:26.770Z,1016.81
2018-02-23T04:00:36.254Z,1016.79
2018-02-23T04:01:44.948Z,1016.84
2018-02-23T04:02:54.423Z,1016.82
2018-02-23T04:04:03.360Z,1016.86
2018-02-23T04:05:12.114Z,1016.84
2018-02-23T04:06:21.050Z,1016.86
2018-02-23T04:07:29.731Z,1016.86
2018-02-23T04:08:38.954Z,1016.88
2018-02-23T04:09:48.221Z,1016.87
2018-02-23T04:10:57.168Z,1016.89
2018-02-23T04:12:05.854Z,1016.84
2018-02-23T04:13:14.547Z,1016.82
2018-02-23T04:14:23.247Z,1016.82
2018-02-23T04:15:32.204Z,1016.83
2018-02-23T04:16:41.190Z,1016.82
2018-02-23T04:17:50.127Z,1016.8
2018-02-23T04:18:59.330Z,1016.83
2018-02-23T04:20:08.072Z,1016.82
2018-02-23T04:21:17.059Z,1016.79
2018-02-23T04:22:26.282Z,1016.79
2018-02-23T04:23:35.525Z,1016.8
2018-02-23T04:24:45.031Z,1016.76
2018-02-23T04:25:54.239Z,1016.79
2018-02-23T04:27:03.184Z,1016.79
2018-02-23T04:28:12.133Z,1016.77
2018-02-23T04:29:21.367Z,1016.77
2018-02-23T04:30:30.347Z,1016.77
2018-02-23T04:31:39.589Z,1016.75
2018-02-23T04:32:48.299Z,1016.75
2018-02-23T04:33:56.975Z,1016.79
2018-02-23T04:35:05.961Z,1016.77
2018-02-23T04:36:15.006Z,1016.81
2018-02-23T04:37:23.955Z,1016.82
2018-02-23T04:38:33.445Z,1016.84
2018-02-23T04:39:42.424Z,1016.85
2018-02-23T04:40:51.133Z,1016.74
2018-02-23T04:42:00.340Z,1016.8
2018-02-23T04:43:09.035Z,1016.79
2018-02-23T04:44:18.249Z,1016.75
2018-02-23T04:45:27.214Z,1016.73
2018-02-23T04:46:36.715Z,1016.76
2018-02-23T04:47:45.657Z,1016.73
2018-02-23T04:48:54.700Z,1016.81
2018-02-23T04:50:04.236Z,1016.82
2018-02-23T04:51:13.254Z,1016.81
2018-02-23T04:52:22.211Z,1016.83
2018-02-23T04:53:31.417Z,1016.76
2018-02-23T04:54:40.378Z,1016.84
2018-02-23T04:55:49.332Z,1016.79
2018-02-23T04:56:58.331Z,1016.8
2018-02-23T04:58:07.316Z,1016.85
2018-02-23T04:59:16.040Z,1016.85
2018-02-23T05:00:25.259Z,1016.85
2018-02-23T05:01:33.969Z,1016.89
2018-02-23T05:02:42.920Z,1016.88
2018-02-23T05:03:52.136Z,1016.86
2018-02-23T05:05:01.640Z,1016.85
2018-02-23T05:06:10.869Z,1016.86
2018-02-23T05:07:20.072Z,1016.87
2018-02-23T05:08:29.322Z,1016.88
2018-02-23T05:09:38.314Z,1016.91
2018-02-23T05:10:47.254Z,1016.95
2018-02-23T05:11:56.765Z,1016.89
2018-02-23T05:13:05.749Z,1016.9
2018-02-23T05:14:15.232Z,1016.92
2018-02-23T05:15:24.189Z,1016.93
2018-02-23T05:16:33.293Z,1016.9
2018-02-23T05:17:42.564Z,1016.91
2018-02-23T05:18:51.801Z,1016.94
2018-02-23T05:20:01.055Z,1016.9
2018-02-23T05:21:09.726Z,1016.94
2018-02-23T05:22:18.433Z,1016.94
2018-02-23T05:23:27.965Z,1016.96
2018-02-23T05:24:37.034Z,1016.92
2018-02-23T05:25:46.041Z,1016.93
2018-02-23T05:26:54.743Z,1017
2018-02-23T05:28:04.486Z,1017
2018-02-23T05:29:13.987Z,1016.99
2018-02-23T05:30:22.940Z,1016.97
2018-02-23T05:31:31.880Z,1016.99
2018-02-23T05:32:40.576Z,1016.93
2018-02-23T05:33:49.547Z,1016.93
2018-02-23T05:34:59.099Z,1016.96
2018-02-23T05:36:08.052Z,1017
2018-02-23T05:37:17.011Z,1016.99
2018-02-23T05:38:25.709Z,1016.97
2018-02-23T05:39:34.945Z,1016.95
2018-02-23T05:40:43.919Z,1016.93
2018-02-23T05:41:53.154Z,1016.94
2018-02-23T05:43:02.109Z,1016.93
2018-02-23T05:44:11.065Z,1016.92
2018-02-23T05:45:20.304Z,1016.91
2018-02-23T05:46:29.496Z,1016.87
2018-02-23T05:47:38.445Z,1016.91
2018-02-23T05:48:47.651Z,1016.88
2018-02-23T05:49:56.625Z,1016.93
2018-02-23T05:51:05.873Z,1016.9
2018-02-23T05:52:14.571Z,1016.9
2018-02-23T05:53:23.312Z,1016.94
2018-02-23T05:54:32.248Z,1016.91
2018-02-23T05:55:41.200Z,1016.98
2018-02-23T05:56:49.889Z,1017.01
2018-02-23T05:57:58.818Z,1017.01
2018-02-23T05:59:08.130Z,1017.01
2018-02-23T06:00:17.620Z,1016.99
2018-02-23T06:01:26.597Z,1017
2018-02-23T06:02:35.587Z,1016.97
2018-02-23T06:03:44.549Z,1016.96
2018-02-23T06:04:53.751Z,1017
2018-02-23T06:06:02.973Z,1016.95
2018-02-23T06:07:11.655Z,1016.97
2018-02-23T06:08:20.885Z,1016.97
2018-02-23T06:09:30.612Z,1016.96
2018-02-23T06:10:39.570Z,1017.04
2018-02-23T06:11:48.274Z,1017.01
2018-02-23T06:12:57.742Z,1017.01
2018-02-23T06:14:06.710Z,1017.02
2018-02-23T06:15:15.652Z,1017.05
2018-02-23T06:16:25.127Z,1017.01
2018-02-23T06:17:34.072Z,1017.02
2018-02-23T06:18:43.265Z,1017.08
2018-02-23T06:19:51.949Z,1017.06
2018-02-23T06:21:00.634Z,1017.04
2018-02-23T06:22:09.595Z,1017.07
2018-02-23T06:23:18.313Z,1017.07
2018-02-23T06:24:27.051Z,1017.1
2018-02-23T06:25:35.949Z,1017.15
2018-02-23T06:26:44.631Z,1017.1
2018-02-23T06:27:53.831Z,1017.17
2018-02-23T06:29:02.780Z,1017.14
2018-02-23T06:30:12.265Z,1017.11
2018-02-23T06:31:21.474Z,1017.16
2018-02-23T06:32:30.148Z,1017.18
2018-02-23T06:33:39.080Z,1017.16
2018-02-23T06:34:48.374Z,1017.17
2018-02-23T06:35:57.618Z,1017.2
2018-02-23T06:37:06.873Z,1017.19
2018-02-23T06:38:16.095Z,1017.23
2018-02-23T06:39:25.321Z,1017.2
2018-02-23T06:40:34.266Z,1017.24
2018-02-23T06:41:43.751Z,1017.23
2018-02-23T06:42:52.751Z,1017.3
2018-02-23T06:44:01.730Z,1017.34
2018-02-23T06:45:10.671Z,1017.33
2018-02-23T06:46:19.367Z,1017.32
2018-02-23T06:47:29.122Z,1017.35
2018-02-23T06:48:38.135Z,1017.35
2018-02-23T06:49:47.951Z,1017.32
2018-02-23T06:50:57.161Z,1017.36
2018-02-23T06:52:06.369Z,1017.38
2018-02-23T06:53:15.596Z,1017.4
2018-02-23T06:54:24.799Z,1017.37
2018-02-23T06:55:34.048Z,1017.38
2018-02-23T06:56:43.285Z,1017.44
2018-02-23T06:57:52.756Z,1017.36
2018-02-23T06:59:01.483Z,1017.45
2018-02-23T07:00:10.673Z,1017.41
2018-02-23T07:01:19.983Z,1017.37
2018-02-23T07:02:28.941Z,1017.42
2018-02-23T07:03:37.885Z,1017.35
2018-02-23T07:04:46.872Z,1017.35
2018-02-23T07:05:56.168Z,1017.34
2018-02-23T07:07:05.372Z,1017.37
2018-02-23T07:08:14.131Z,1017.34
2018-02-23T07:09:23.093Z,1017.36
2018-02-23T07:10:32.093Z,1017.29
2018-02-23T07:11:41.317Z,1017.34
2018-02-23T07:12:50.824Z,1017.41
2018-02-23T07:13:59.830Z,1017.38
2018-02-23T07:15:09.068Z,1017.38
2018-02-23T07:16:18.027Z,1017.38
2018-02-23T07:17:27.267Z,1017.4
2018-02-23T07:18:35.945Z,1017.44
2018-02-23T07:19:44.904Z,1017.42
2018-02-23T07:20:53.849Z,1017.43
2018-02-23T07:22:02.558Z,1017.39
2018-02-23T07:23:11.804Z,1017.41
2018-02-23T07:24:20.819Z,1017.39
2018-02-23T07:25:30.046Z,1017.43
2018-02-23T07:26:39.515Z,1017.41
2018-02-23T07:27:48.736Z,1017.4
2018-02-23T07:28:57.960Z,1017.45
2018-02-23T07:30:06.921Z,1017.44
2018-02-23T07:31:15.872Z,1017.45
2018-02-23T07:32:24.814Z,1017.49
2018-02-23T07:33:33.756Z,1017.5
2018-02-23T07:34:42.531Z,1017.5
2018-02-23T07:35:51.239Z,1017.52
2018-02-23T07:37:00.197Z,1017.51
2018-02-23T07:38:09.146Z,1017.52
2018-02-23T07:39:18.365Z,1017.5
2018-02-23T07:40:27.574Z,1017.54
2018-02-23T07:41:36.784Z,1017.54
2018-02-23T07:42:45.997Z,1017.52
2018-02-23T07:43:54.987Z,1017.48
2018-02-23T07:45:03.720Z,1017.56
2018-02-23T07:46:13.244Z,1017.55
2018-02-23T07:47:22.747Z,1017.58
2018-02-23T07:48:31.706Z,1017.49
2018-02-23T07:49:40.665Z,1017.55
2018-02-23T07:50:49.381Z,1017.57
2018-02-23T07:51:58.640Z,1017.54
2018-02-23T07:53:07.361Z,1017.54
2018-02-23T07:54:16.334Z,1017.54
2018-02-23T07:55:25.309Z,1017.56
2018-02-23T07:56:34.572Z,1017.55
2018-02-23T07:57:43.786Z,1017.49
2018-02-23T07:58:53.036Z,1017.57
2018-02-23T08:00:01.997Z,1017.5
2018-02-23T08:01:11.224Z,1017.52
2018-02-23T08:02:20.571Z,1017.55
2018-02-23T08:03:30.324Z,1017.55
2018-02-23T08:04:39.543Z,1017.57
2018-02-23T08:05:48.782Z,1017.55
2018-02-23T08:06:57.795Z,1017.47
2018-02-23T08:08:06.473Z,1017.49
2018-02-23T08:09:15.945Z,1017.53
2018-02-23T08:10:25.457Z,1017.49
2018-02-23T08:11:34.143Z,1017.47
2018-02-23T08:12:43.174Z,1017.44
2018-02-23T08:13:52.260Z,1017.5
2018-02-23T08:15:01.503Z,1017.5
2018-02-23T08:16:10.974Z,1017.58
2018-02-23T08:17:19.931Z,1017.56
2018-02-23T08:18:29.173Z,1017.58
2018-02-23T08:19:38.058Z,1017.57
2018-02-23T08:20:47.310Z,1017.61
2018-02-23T08:21:56.258Z,1017.61
2018-02-23T08:23:05.283Z,1017.62
2018-02-23T08:24:15.645Z,1017.67
2018-02-23T08:25:25.667Z,1017.67
2018-02-23T08:26:34.785Z,1017.65
2018-02-23T08:27:44.262Z,1017.67
2018-02-23T08:28:53.547Z,1017.69
2018-02-23T08:30:02.790Z,1017.66
2018-02-23T08:31:12.024Z,1017.62
2018-02-23T08:32:21.342Z,1017.6
2018-02-23T08:33:30.033Z,1017.56
2018-02-23T08:34:38.967Z,1017.58
2018-02-23T08:35:48.444Z,1017.53
2018-02-23T08:36:57.488Z,1017.52
2018-02-23T08:38:06.196Z,1017.55
2018-02-23T08:39:15.169Z,1017.49
2018-02-23T08:40:23.852Z,1017.48
2018-02-23T08:41:32.878Z,1017.54
2018-02-23T08:42:42.650Z,1017.51
2018-02-23T08:43:51.410Z,1017.53
2018-02-23T08:45:00.181Z,1017.53
2018-02-23T08:46:09.177Z,1017.53
2018-02-23T08:47:18.824Z,1017.49
2018-02-23T08:48:28.047Z,1017.46
2018-02-23T08:49:37.020Z,1017.54
2018-02-23T08:50:45.968Z,1017.52
2018-02-23T08:51:54.715Z,1017.52
2018-02-23T08:53:03.655Z,1017.46
2018-02-23T08:54:12.336Z,1017.48
2018-02-23T08:55:21.579Z,1017.5
2018-02-23T08:56:30.530Z,1017.5
2018-02-23T08:57:39.501Z,1017.5
2018-02-23T08:58:48.248Z,1017.48
2018-02-23T08:59:57.716Z,1017.41
2018-02-23T09:01:06.923Z,1017.4
2018-02-23T09:02:15.877Z,1017.45
2018-02-23T09:03:25.094Z,1017.47
2018-02-23T09:04:34.316Z,1017.43
2018-02-23T09:05:43.277Z,1017.45
2018-02-23T09:06:52.278Z,1017.39
2018-02-23T09:08:01.522Z,1017.43
2018-02-23T09:09:11.007Z,1017.48
2018-02-23T09:10:20.498Z,1017.42
2018-02-23T09:11:29.708Z,1017.49
2018-02-23T09:12:38.700Z,1017.48
2018-02-23T09:13:47.498Z,1017.47
2018-02-23T09:14:56.489Z,1017.5
2018-02-23T09:16:05.709Z,1017.45
2018-02-23T09:17:14.462Z,1017.49
2018-02-23T09:18:23.226Z,1017.48
2018-02-23T09:19:32.757Z,1017.53
2018-02-23T09:20:41.773Z,1017.49
2018-02-23T09:21:50.761Z,1017.47
2018-02-23T09:23:00.249Z,1017.44
2018-02-23T09:24:09.326Z,1017.43
2018-02-23T09:25:18.613Z,1017.44
2018-02-23T09:26:27.836Z,1017.4
2018-02-23T09:27:36.911Z,1017.48
2018-02-23T09:28:45.691Z,1017.47
2018-02-23T09:29:54.639Z,1017.49
2018-02-23T09:31:04.190Z,1017.5
2018-02-23T09:32:12.950Z,1017.49
2018-02-23T09:33:21.658Z,1017.53
2018-02-23T09:34:31.182Z,1017.51
2018-02-23T09:35:40.676Z,1017.53
2018-02-23T09:36:49.622Z,1017.46
2018-02-23T09:37:58.303Z,1017.48
2018-02-23T09:39:07.340Z,1017.44
2018-02-23T09:40:16.310Z,1017.5
2018-02-23T09:41:25.810Z,1017.5
2018-02-23T09:42:34.781Z,1017.49
2018-02-23T09:43:44.273Z,1017.5
2018-02-23T09:44:53.484Z,1017.49
2018-02-23T09:46:02.733Z,1017.49
2018-02-23T09:47:12.221Z,1017.46
2018-02-23T09:48:21.558Z,1017.42
2018-02-23T09:49:30.252Z,1017.43
2018-02-23T09:50:39.302Z,1017.42
2018-02-23T09:51:48.337Z,1017.4
2018-02-23T09:52:58.113Z,1017.49
2018-02-23T09:54:06.805Z,1017.44
2018-02-23T09:55:16.281Z,1017.41
2018-02-23T09:56:25.216Z,1017.4
2018-02-23T09:57:34.439Z,1017.46
2018-02-23T09:58:43.706Z,1017.51
2018-02-23T09:59:53.458Z,1017.51
2018-02-23T10:01:02.885Z,1017.46
2018-02-23T10:02:12.108Z,1017.46
2018-02-23T10:03:21.359Z,1017.44
2018-02-23T10:04:30.302Z,1017.45
2018-02-23T10:05:39.266Z,1017.43
2018-02-23T10:06:47.955Z,1017.48
2018-02-23T10:07:56.935Z,1017.51
2018-02-23T10:09:05.878Z,1017.48
2018-02-23T10:10:14.576Z,1017.46
2018-02-23T10:11:24.061Z,1017.4
2018-02-23T10:12:33.037Z,1017.46
2018-02-23T10:13:42.000Z,1017.48
2018-02-23T10:14:50.694Z,1017.43
2018-02-23T10:15:59.675Z,1017.46
2018-02-23T10:17:09.456Z,1017.39
2018-02-23T10:18:18.684Z,1017.46
2018-02-23T10:19:27.653Z,1017.43
2018-02-23T10:20:36.549Z,1017.42
2018-02-23T10:21:46.510Z,1017.41
2018-02-23T10:22:55.477Z,1017.38
2018-02-23T10:24:04.777Z,1017.36
2018-02-23T10:25:13.632Z,1017.39
2018-02-23T10:26:23.157Z,1017.43
2018-02-23T10:27:34.431Z,1017.41
2018-02-23T10:28:43.671Z,1017.41
2018-02-23T10:29:52.673Z,1017.32
2018-02-23T10:31:01.911Z,1017.38
2018-02-23T10:32:10.894Z,1017.38
2018-02-23T10:33:20.109Z,1017.31
2018-02-23T10:34:29.296Z,1017.29
2018-02-23T10:35:39.084Z,1017.3
2018-02-23T10:36:47.772Z,1017.23
2018-02-23T10:37:57.355Z,1017.28
2018-02-23T10:39:06.934Z,1017.26
2018-02-23T10:40:15.910Z,1017.26
2018-02-23T10:41:25.116Z,1017.25
2018-02-23T10:42:34.090Z,1017.24
2018-02-23T10:43:43.123Z,1017.23
2018-02-23T10:44:52.322Z,1017.24
2018-02-23T10:46:02.082Z,1017.32
2018-02-23T10:47:10.816Z,1017.27
2018-02-23T10:48:20.052Z,1017.24
2018-02-23T10:49:29.054Z,1017.19
2018-02-23T10:50:38.754Z,1017.15
2018-02-23T10:51:48.007Z,1017.17
2018-02-23T10:52:56.912Z,1017.19
2018-02-23T10:54:05.595Z,1017.16
2018-02-23T10:55:14.608Z,1017.17
2018-02-23T10:56:23.308Z,1017.14
2018-02-23T10:57:32.547Z,1017.18
2018-02-23T10:58:41.499Z,1017.07
2018-02-23T10:59:50.481Z,1017.14
2018-02-23T11:00:59.950Z,1017.08
2018-02-23T11:02:08.903Z,1017.05
2018-02-23T11:03:17.853Z,1017.09
2018-02-23T11:04:26.814Z,1016.98
2018-02-23T11:05:36.063Z,1017.02
2018-02-23T11:06:45.012Z,1017.05
2018-02-23T11:07:54.254Z,1017.02
2018-02-23T11:09:03.494Z,1016.99
2018-02-23T11:10:12.452Z,1016.96
2018-02-23T11:11:21.399Z,1016.95
2018-02-23T11:12:30.657Z,1016.91
2018-02-23T11:13:40.474Z,1016.93
2018-02-23T11:14:50.006Z,1016.91
2018-02-23T11:15:58.968Z,1016.93
2018-02-23T11:17:08.457Z,1016.9
2018-02-23T11:18:17.677Z,1016.89
2018-02-23T11:19:26.627Z,1016.88
2018-02-23T11:20:36.374Z,1016.89
2018-02-23T11:21:45.874Z,1016.88
2018-02-23T11:22:54.815Z,1016.92
2018-02-23T11:24:03.783Z,1016.88
2018-02-23T11:25:12.743Z,1016.87
2018-02-23T11:26:21.684Z,1016.88
2018-02-23T11:27:30.619Z,1016.82
2018-02-23T11:28:39.840Z,1016.82
2018-02-23T11:29:48.794Z,1016.75
2018-02-23T11:30:57.761Z,1016.73
2018-02-23T11:32:06.971Z,1016.71
2018-02-23T11:33:15.661Z,1016.77
2018-02-23T11:34:24.349Z,1016.73
2018-02-23T11:35:33.318Z,1016.77
2018-02-23T11:36:42.781Z,1016.71
2018-02-23T11:37:51.783Z,1016.7
2018-02-23T11:39:00.466Z,1016.69
2018-02-23T11:40:09.438Z,1016.71
2018-02-23T11:41:18.389Z,1016.67
2018-02-23T11:42:27.392Z,1016.6
2018-02-23T11:43:36.346Z,1016.66
2018-02-23T11:44:45.871Z,1016.65
2018-02-23T11:45:55.637Z,1016.63
2018-02-23T11:47:04.847Z,1016.62
2018-02-23T11:48:13.823Z,1016.65
2018-02-23T11:49:23.083Z,1016.63
2018-02-23T11:50:32.025Z,1016.63
2018-02-23T11:51:41.245Z,1016.66
2018-02-23T11:52:50.447Z,1016.56
2018-02-23T11:54:00.222Z,1016.58
2018-02-23T11:55:09.695Z,1016.5
2018-02-23T11:56:18.384Z,1016.52
2018-02-23T11:57:27.074Z,1016.54
2018-02-23T11:58:36.029Z,1016.56
2018-02-23T11:59:44.720Z,1016.63
2018-02-23T12:00:53.999Z,1016.53
2018-02-23T12:02:03.244Z,1016.5
2018-02-23T12:03:12.466Z,1016.48
2018-02-23T12:04:21.422Z,1016.58
2018-02-23T12:05:30.903Z,1016.53
2018-02-23T12:06:41.344Z,1016.48
2018-02-23T12:07:50.844Z,1016.47
2018-02-23T12:08:59.800Z,1016.53
2018-02-23T12:10:09.543Z,1016.57
2018-02-23T12:11:18.240Z,1016.5
2018-02-23T12:12:27.785Z,1016.5
2018-02-23T12:13:37.537Z,1016.48
2018-02-23T12:14:46.434Z,1016.48
2018-02-23T12:15:55.375Z,1016.47
2018-02-23T12:17:04.363Z,1016.49
2018-02-23T12:18:13.562Z,1016.45
2018-02-23T12:19:22.793Z,1016.42
2018-02-23T12:20:31.760Z,1016.41
2018-02-23T12:21:40.700Z,1016.42
2018-02-23T12:22:49.954Z,1016.42
2018-02-23T12:23:59.425Z,1016.42
2018-02-23T12:25:08.363Z,1016.38
2018-02-23T12:26:17.840Z,1016.39
2018-02-23T12:27:26.780Z,1016.39
2018-02-23T12:28:36.253Z,1016.34
2018-02-23T12:29:45.225Z,1016.34
2018-02-23T12:30:54.189Z,1016.44
2018-02-23T12:32:02.934Z,1016.38
2018-02-23T12:33:11.890Z,1016.29
2018-02-23T12:34:21.700Z,1016.27
2018-02-23T12:35:30.463Z,1016.26
2018-02-23T12:36:39.433Z,1016.24
2018-02-23T12:37:49.175Z,1016.3
2018-02-23T12:38:58.143Z,1016.24
2018-02-23T12:40:07.393Z,1016.18
2018-02-23T12:41:16.117Z,1016.14
